sensor_id;sensor_type;location;lat;lon;timestamp;P1;durP1;ratioP1;P2;durP2;ratioP2
5363;SDS011;2705;41.410;2.160;2022-11-15T00:00:17;10.00;;;4.30;;
5363;SDS011;2705;41.410;2.160;2022-11-15T00:03:05;10.10;;;4.77;;
5363;SDS011;2705;41.410;2.160;2022-11-15T00:05:54;8.67;;;3.83;;
5363;SDS011;2705;41.410;2.160;2022-11-15T00:08:42;11.83;;;4.00;;
5363;SDS011;2705;41.410;2.160;2022-11-15T00:11:30;7.83;;;3.67;;
5363;SDS011;2705;41.410;2.160;2022-11-15T00:14:17;7.13;;;3.93;;
5363;SDS011;2705;41.410;2.160;2022-11-15T00:17:05;12.37;;;4.33;;
5363;SDS011;2705;41.410;2.160;2022-11-15T00:19:53;9.80;;;4.50;;
5363;SDS011;2705;41.410;2.160;2022-11-15T00:22:42;6.97;;;4.07;;
5363;SDS011;2705;41.410;2.160;2022-11-15T00:25:30;14.00;;;4.20;;
5363;SDS011;2705;41.410;2.160;2022-11-15T00:28:17;11.07;;;4.20;;
5363;SDS011;2705;41.410;2.160;2022-11-15T00:31:06;8.70;;;4.30;;
5363;SDS011;2705;41.410;2.160;2022-11-15T00:33:54;11.43;;;4.20;;
5363;SDS011;2705;41.410;2.160;2022-11-15T00:36:41;11.13;;;4.33;;
5363;SDS011;2705;41.410;2.160;2022-11-15T00:39:30;7.57;;;4.00;;
5363;SDS011;2705;41.410;2.160;2022-11-15T00:42:18;10.10;;;4.40;;
5363;SDS011;2705;41.410;2.160;2022-11-15T00:45:07;9.90;;;4.43;;
5363;SDS011;2705;41.410;2.160;2022-11-15T00:47:55;9.03;;;4.47;;
5363;SDS011;2705;41.410;2.160;2022-11-15T00:50:43;8.80;;;4.10;;
5363;SDS011;2705;41.410;2.160;2022-11-15T00:53:31;12.33;;;4.10;;
5363;SDS011;2705;41.410;2.160;2022-11-15T00:56:20;6.27;;;4.10;;
5363;SDS011;2705;41.410;2.160;2022-11-15T00:59:08;7.27;;;3.70;;
5363;SDS011;2705;41.410;2.160;2022-11-15T01:01:55;7.43;;;4.07;;
5363;SDS011;2705;41.410;2.160;2022-11-15T01:04:43;9.33;;;3.80;;
5363;SDS011;2705;41.410;2.160;2022-11-15T01:07:31;14.87;;;4.37;;
5363;SDS011;2705;41.410;2.160;2022-11-15T01:10:19;9.97;;;4.30;;
5363;SDS011;2705;41.410;2.160;2022-11-15T01:13:09;5.77;;;3.70;;
5363;SDS011;2705;41.410;2.160;2022-11-15T01:15:57;10.90;;;4.43;;
5363;SDS011;2705;41.410;2.160;2022-11-15T01:18:45;11.43;;;5.00;;
5363;SDS011;2705;41.410;2.160;2022-11-15T01:21:33;11.40;;;4.60;;
5363;SDS011;2705;41.410;2.160;2022-11-15T01:24:21;8.57;;;4.30;;
5363;SDS011;2705;41.410;2.160;2022-11-15T01:27:08;10.20;;;4.23;;
5363;SDS011;2705;41.410;2.160;2022-11-15T01:29:57;6.53;;;4.13;;
5363;SDS011;2705;41.410;2.160;2022-11-15T01:32:45;9.20;;;3.93;;
5363;SDS011;2705;41.410;2.160;2022-11-15T01:35:33;7.83;;;4.30;;
5363;SDS011;2705;41.410;2.160;2022-11-15T01:38:21;9.00;;;4.03;;
5363;SDS011;2705;41.410;2.160;2022-11-15T01:41:14;9.80;;;4.70;;
5363;SDS011;2705;41.410;2.160;2022-11-15T01:47:10;13.40;;;4.73;;
5363;SDS011;2705;41.410;2.160;2022-11-15T01:50:00;10.50;;;4.57;;
5363;SDS011;2705;41.410;2.160;2022-11-15T01:52:49;9.30;;;4.30;;
5363;SDS011;2705;41.410;2.160;2022-11-15T01:55:37;10.67;;;5.10;;
5363;SDS011;2705;41.410;2.160;2022-11-15T01:58:24;11.80;;;4.90;;
5363;SDS011;2705;41.410;2.160;2022-11-15T02:01:12;14.63;;;5.07;;
5363;SDS011;2705;41.410;2.160;2022-11-15T02:04:03;7.53;;;4.00;;
5363;SDS011;2705;41.410;2.160;2022-11-15T02:06:54;15.13;;;4.93;;
5363;SDS011;2705;41.410;2.160;2022-11-15T02:09:42;10.10;;;4.30;;
5363;SDS011;2705;41.410;2.160;2022-11-15T02:12:31;10.27;;;4.30;;
5363;SDS011;2705;41.410;2.160;2022-11-15T02:15:18;8.93;;;4.00;;
5363;SDS011;2705;41.410;2.160;2022-11-15T02:18:09;9.83;;;4.10;;
5363;SDS011;2705;41.410;2.160;2022-11-15T02:21:04;7.27;;;4.07;;
5363;SDS011;2705;41.410;2.160;2022-11-15T02:24:05;12.07;;;3.63;;
5363;SDS011;2705;41.410;2.160;2022-11-15T02:30:15;7.87;;;3.50;;
5363;SDS011;2705;41.410;2.160;2022-11-15T02:33:03;7.70;;;3.90;;
5363;SDS011;2705;41.410;2.160;2022-11-15T02:35:57;10.90;;;4.40;;
5363;SDS011;2705;41.410;2.160;2022-11-15T02:38:46;7.57;;;4.03;;
5363;SDS011;2705;41.410;2.160;2022-11-15T02:41:39;10.83;;;3.47;;
5363;SDS011;2705;41.410;2.160;2022-11-15T02:44:30;8.60;;;3.57;;
5363;SDS011;2705;41.410;2.160;2022-11-15T02:47:20;10.27;;;3.80;;
5363;SDS011;2705;41.410;2.160;2022-11-15T02:50:10;5.90;;;2.90;;
5363;SDS011;2705;41.410;2.160;2022-11-15T02:52:59;9.33;;;3.47;;
5363;SDS011;2705;41.410;2.160;2022-11-15T02:55:47;7.90;;;3.30;;
5363;SDS011;2705;41.410;2.160;2022-11-15T02:58:41;10.90;;;3.17;;
5363;SDS011;2705;41.410;2.160;2022-11-15T03:01:37;7.30;;;3.10;;
5363;SDS011;2705;41.410;2.160;2022-11-15T03:04:28;7.90;;;3.47;;
5363;SDS011;2705;41.410;2.160;2022-11-15T03:07:18;8.10;;;3.50;;
5363;SDS011;2705;41.410;2.160;2022-11-15T03:10:08;15.13;;;3.60;;
5363;SDS011;2705;41.410;2.160;2022-11-15T03:12:58;6.00;;;2.77;;
5363;SDS011;2705;41.410;2.160;2022-11-15T03:15:49;7.00;;;3.63;;
5363;SDS011;2705;41.410;2.160;2022-11-15T03:18:38;8.37;;;3.80;;
5363;SDS011;2705;41.410;2.160;2022-11-15T03:21:29;11.90;;;4.13;;
5363;SDS011;2705;41.410;2.160;2022-11-15T03:24:17;12.13;;;3.20;;
5363;SDS011;2705;41.410;2.160;2022-11-15T03:27:11;6.93;;;3.33;;
5363;SDS011;2705;41.410;2.160;2022-11-15T03:30:02;9.50;;;3.60;;
5363;SDS011;2705;41.410;2.160;2022-11-15T03:32:52;7.13;;;4.20;;
5363;SDS011;2705;41.410;2.160;2022-11-15T03:35:42;5.77;;;3.40;;
5363;SDS011;2705;41.410;2.160;2022-11-15T03:38:33;6.80;;;3.60;;
5363;SDS011;2705;41.410;2.160;2022-11-15T03:41:22;5.27;;;3.63;;
5363;SDS011;2705;41.410;2.160;2022-11-15T03:44:12;15.53;;;3.70;;
5363;SDS011;2705;41.410;2.160;2022-11-15T03:47:02;11.00;;;3.70;;
5363;SDS011;2705;41.410;2.160;2022-11-15T03:49:52;9.70;;;3.20;;
5363;SDS011;2705;41.410;2.160;2022-11-15T03:52:40;8.30;;;3.13;;
5363;SDS011;2705;41.410;2.160;2022-11-15T03:55:31;6.60;;;3.40;;
5363;SDS011;2705;41.410;2.160;2022-11-15T03:58:19;5.30;;;3.60;;
5363;SDS011;2705;41.410;2.160;2022-11-15T04:01:07;8.30;;;3.03;;
5363;SDS011;2705;41.410;2.160;2022-11-15T04:03:54;6.60;;;3.23;;
5363;SDS011;2705;41.410;2.160;2022-11-15T04:06:42;6.97;;;2.93;;
5363;SDS011;2705;41.410;2.160;2022-11-15T04:09:30;5.30;;;3.10;;
5363;SDS011;2705;41.410;2.160;2022-11-15T04:12:19;5.37;;;3.50;;
5363;SDS011;2705;41.410;2.160;2022-11-15T04:15:17;6.20;;;2.90;;
5363;SDS011;2705;41.410;2.160;2022-11-15T04:18:05;8.10;;;3.80;;
5363;SDS011;2705;41.410;2.160;2022-11-15T04:20:53;8.20;;;3.63;;
5363;SDS011;2705;41.410;2.160;2022-11-15T04:23:58;9.60;;;3.77;;
5363;SDS011;2705;41.410;2.160;2022-11-15T04:27:01;7.93;;;4.20;;
5363;SDS011;2705;41.410;2.160;2022-11-15T04:29:50;17.50;;;4.23;;
5363;SDS011;2705;41.410;2.160;2022-11-15T04:32:38;6.37;;;3.80;;
5363;SDS011;2705;41.410;2.160;2022-11-15T04:35:26;7.50;;;4.00;;
5363;SDS011;2705;41.410;2.160;2022-11-15T04:38:14;9.57;;;4.00;;
5363;SDS011;2705;41.410;2.160;2022-11-15T04:41:02;10.57;;;3.93;;
5363;SDS011;2705;41.410;2.160;2022-11-15T04:43:50;8.47;;;3.50;;
5363;SDS011;2705;41.410;2.160;2022-11-15T04:46:39;8.37;;;3.27;;
5363;SDS011;2705;41.410;2.160;2022-11-15T04:49:27;10.00;;;4.17;;
5363;SDS011;2705;41.410;2.160;2022-11-15T04:52:15;9.20;;;4.13;;
5363;SDS011;2705;41.410;2.160;2022-11-15T04:55:03;6.50;;;3.80;;
5363;SDS011;2705;41.410;2.160;2022-11-15T04:57:59;7.97;;;3.70;;
5363;SDS011;2705;41.410;2.160;2022-11-15T05:00:46;9.80;;;3.73;;
5363;SDS011;2705;41.410;2.160;2022-11-15T05:03:35;7.53;;;4.10;;
5363;SDS011;2705;41.410;2.160;2022-11-15T05:06:41;11.40;;;3.80;;
5363;SDS011;2705;41.410;2.160;2022-11-15T05:09:29;7.60;;;4.00;;
5363;SDS011;2705;41.410;2.160;2022-11-15T05:12:16;9.00;;;3.97;;
5363;SDS011;2705;41.410;2.160;2022-11-15T05:15:04;7.57;;;4.17;;
5363;SDS011;2705;41.410;2.160;2022-11-15T05:17:57;7.70;;;4.07;;
5363;SDS011;2705;41.410;2.160;2022-11-15T05:20:47;9.10;;;4.20;;
5363;SDS011;2705;41.410;2.160;2022-11-15T05:23:34;9.53;;;4.20;;
5363;SDS011;2705;41.410;2.160;2022-11-15T05:26:22;7.93;;;4.50;;
5363;SDS011;2705;41.410;2.160;2022-11-15T05:29:10;14.30;;;4.23;;
5363;SDS011;2705;41.410;2.160;2022-11-15T05:31:58;9.20;;;4.30;;
5363;SDS011;2705;41.410;2.160;2022-11-15T05:34:45;9.80;;;5.03;;
5363;SDS011;2705;41.410;2.160;2022-11-15T05:37:35;12.03;;;4.07;;
5363;SDS011;2705;41.410;2.160;2022-11-15T05:40:23;9.60;;;4.53;;
5363;SDS011;2705;41.410;2.160;2022-11-15T05:43:11;6.90;;;3.90;;
5363;SDS011;2705;41.410;2.160;2022-11-15T05:45:59;15.20;;;8.90;;
5363;SDS011;2705;41.410;2.160;2022-11-15T05:48:48;12.67;;;5.03;;
5363;SDS011;2705;41.410;2.160;2022-11-15T05:51:36;12.70;;;4.67;;
5363;SDS011;2705;41.410;2.160;2022-11-15T05:54:25;9.13;;;4.30;;
5363;SDS011;2705;41.410;2.160;2022-11-15T05:57:13;9.67;;;4.63;;
5363;SDS011;2705;41.410;2.160;2022-11-15T06:00:02;8.83;;;4.60;;
5363;SDS011;2705;41.410;2.160;2022-11-15T06:02:50;9.20;;;4.70;;
5363;SDS011;2705;41.410;2.160;2022-11-15T06:05:38;11.43;;;4.93;;
5363;SDS011;2705;41.410;2.160;2022-11-15T06:08:25;10.93;;;4.87;;
5363;SDS011;2705;41.410;2.160;2022-11-15T06:11:14;8.80;;;4.23;;
5363;SDS011;2705;41.410;2.160;2022-11-15T06:14:02;14.27;;;4.57;;
5363;SDS011;2705;41.410;2.160;2022-11-15T06:16:50;16.60;;;4.87;;
5363;SDS011;2705;41.410;2.160;2022-11-15T06:19:38;7.40;;;4.27;;
5363;SDS011;2705;41.410;2.160;2022-11-15T06:22:26;18.90;;;6.33;;
5363;SDS011;2705;41.410;2.160;2022-11-15T06:25:13;6.67;;;4.10;;
5363;SDS011;2705;41.410;2.160;2022-11-15T06:28:03;10.53;;;5.10;;
5363;SDS011;2705;41.410;2.160;2022-11-15T06:30:50;16.00;;;5.47;;
5363;SDS011;2705;41.410;2.160;2022-11-15T06:33:38;9.70;;;4.27;;
5363;SDS011;2705;41.410;2.160;2022-11-15T06:36:26;12.50;;;5.33;;
5363;SDS011;2705;41.410;2.160;2022-11-15T06:39:14;13.83;;;6.00;;
5363;SDS011;2705;41.410;2.160;2022-11-15T06:42:02;27.70;;;7.80;;
5363;SDS011;2705;41.410;2.160;2022-11-15T06:44:51;22.30;;;7.77;;
5363;SDS011;2705;41.410;2.160;2022-11-15T06:47:43;29.50;;;7.93;;
5363;SDS011;2705;41.410;2.160;2022-11-15T06:50:32;26.57;;;7.30;;
5363;SDS011;2705;41.410;2.160;2022-11-15T06:53:20;13.50;;;6.00;;
5363;SDS011;2705;41.410;2.160;2022-11-15T06:56:07;15.47;;;5.43;;
5363;SDS011;2705;41.410;2.160;2022-11-15T06:58:56;14.80;;;6.20;;
5363;SDS011;2705;41.410;2.160;2022-11-15T07:01:45;22.30;;;6.87;;
5363;SDS011;2705;41.410;2.160;2022-11-15T07:04:33;15.43;;;6.93;;
5363;SDS011;2705;41.410;2.160;2022-11-15T07:07:22;15.17;;;6.57;;
5363;SDS011;2705;41.410;2.160;2022-11-15T07:10:10;12.60;;;6.53;;
5363;SDS011;2705;41.410;2.160;2022-11-15T07:12:58;14.17;;;7.07;;
5363;SDS011;2705;41.410;2.160;2022-11-15T07:15:46;18.83;;;6.63;;
5363;SDS011;2705;41.410;2.160;2022-11-15T07:18:35;15.83;;;7.17;;
5363;SDS011;2705;41.410;2.160;2022-11-15T07:21:23;11.20;;;6.03;;
5363;SDS011;2705;41.410;2.160;2022-11-15T07:24:12;12.20;;;5.67;;
5363;SDS011;2705;41.410;2.160;2022-11-15T07:27:00;19.10;;;10.60;;
5363;SDS011;2705;41.410;2.160;2022-11-15T07:29:47;19.90;;;7.17;;
5363;SDS011;2705;41.410;2.160;2022-11-15T07:32:35;15.83;;;6.77;;
5363;SDS011;2705;41.410;2.160;2022-11-15T07:35:24;16.00;;;7.40;;
5363;SDS011;2705;41.410;2.160;2022-11-15T07:38:12;17.50;;;7.97;;
5363;SDS011;2705;41.410;2.160;2022-11-15T07:41:01;23.13;;;9.07;;
5363;SDS011;2705;41.410;2.160;2022-11-15T07:43:50;13.33;;;8.43;;
5363;SDS011;2705;41.410;2.160;2022-11-15T07:46:39;32.70;;;10.93;;
5363;SDS011;2705;41.410;2.160;2022-11-15T07:49:26;26.43;;;11.60;;
5363;SDS011;2705;41.410;2.160;2022-11-15T07:52:16;20.53;;;9.73;;
5363;SDS011;2705;41.410;2.160;2022-11-15T07:55:04;28.07;;;10.70;;
5363;SDS011;2705;41.410;2.160;2022-11-15T07:57:51;25.47;;;10.60;;
5363;SDS011;2705;41.410;2.160;2022-11-15T08:00:39;31.53;;;11.67;;
5363;SDS011;2705;41.410;2.160;2022-11-15T08:03:27;21.90;;;10.90;;
5363;SDS011;2705;41.410;2.160;2022-11-15T08:06:15;25.13;;;12.60;;
5363;SDS011;2705;41.410;2.160;2022-11-15T08:09:05;32.13;;;11.93;;
5363;SDS011;2705;41.410;2.160;2022-11-15T08:11:52;25.00;;;11.20;;
5363;SDS011;2705;41.410;2.160;2022-11-15T08:14:40;35.27;;;17.27;;
5363;SDS011;2705;41.410;2.160;2022-11-15T08:17:28;41.57;;;15.80;;
5363;SDS011;2705;41.410;2.160;2022-11-15T08:20:18;43.77;;;17.00;;
5363;SDS011;2705;41.410;2.160;2022-11-15T08:23:06;29.63;;;12.97;;
5363;SDS011;2705;41.410;2.160;2022-11-15T08:25:59;40.13;;;15.50;;
5363;SDS011;2705;41.410;2.160;2022-11-15T08:28:48;25.17;;;12.60;;
5363;SDS011;2705;41.410;2.160;2022-11-15T08:31:36;21.90;;;11.83;;
5363;SDS011;2705;41.410;2.160;2022-11-15T08:34:24;33.73;;;13.90;;
5363;SDS011;2705;41.410;2.160;2022-11-15T08:37:12;35.23;;;17.03;;
5363;SDS011;2705;41.410;2.160;2022-11-15T08:39:59;29.20;;;13.80;;
5363;SDS011;2705;41.410;2.160;2022-11-15T08:42:49;30.53;;;11.87;;
5363;SDS011;2705;41.410;2.160;2022-11-15T08:45:37;26.67;;;9.80;;
5363;SDS011;2705;41.410;2.160;2022-11-15T08:48:25;53.17;;;11.70;;
5363;SDS011;2705;41.410;2.160;2022-11-15T08:51:13;23.33;;;11.00;;
5363;SDS011;2705;41.410;2.160;2022-11-15T08:54:01;26.27;;;10.90;;
5363;SDS011;2705;41.410;2.160;2022-11-15T08:56:49;20.37;;;8.90;;
5363;SDS011;2705;41.410;2.160;2022-11-15T08:59:38;27.90;;;10.80;;
5363;SDS011;2705;41.410;2.160;2022-11-15T09:02:26;28.13;;;7.43;;
5363;SDS011;2705;41.410;2.160;2022-11-15T09:05:14;19.77;;;8.40;;
5363;SDS011;2705;41.410;2.160;2022-11-15T09:08:02;24.37;;;9.70;;
5363;SDS011;2705;41.410;2.160;2022-11-15T09:11:10;19.70;;;8.17;;
5363;SDS011;2705;41.410;2.160;2022-11-15T09:13:58;16.87;;;7.87;;
5363;SDS011;2705;41.410;2.160;2022-11-15T09:16:47;11.93;;;6.80;;
5363;SDS011;2705;41.410;2.160;2022-11-15T09:19:35;22.83;;;8.57;;
5363;SDS011;2705;41.410;2.160;2022-11-15T09:22:23;33.10;;;11.00;;
5363;SDS011;2705;41.410;2.160;2022-11-15T09:25:11;24.37;;;8.90;;
5363;SDS011;2705;41.410;2.160;2022-11-15T09:27:59;21.03;;;7.77;;
5363;SDS011;2705;41.410;2.160;2022-11-15T09:30:46;27.60;;;6.77;;
5363;SDS011;2705;41.410;2.160;2022-11-15T09:33:35;12.90;;;7.10;;
5363;SDS011;2705;41.410;2.160;2022-11-15T09:36:23;12.83;;;5.90;;
5363;SDS011;2705;41.410;2.160;2022-11-15T09:39:11;23.80;;;8.60;;
5363;SDS011;2705;41.410;2.160;2022-11-15T09:42:12;10.57;;;6.07;;
5363;SDS011;2705;41.410;2.160;2022-11-15T09:45:10;16.17;;;6.30;;
5363;SDS011;2705;41.410;2.160;2022-11-15T09:51:12;9.70;;;3.70;;
5363;SDS011;2705;41.410;2.160;2022-11-15T09:53:47;18.57;;;3.30;;
5363;SDS011;2705;41.410;2.160;2022-11-15T09:56:38;19.13;;;5.90;;
5363;SDS011;2705;41.410;2.160;2022-11-15T09:59:19;15.57;;;4.83;;
5363;SDS011;2705;41.410;2.160;2022-11-15T10:01:54;6.37;;;2.70;;
5363;SDS011;2705;41.410;2.160;2022-11-15T10:04:25;8.53;;;2.87;;
5363;SDS011;2705;41.410;2.160;2022-11-15T10:06:57;6.20;;;2.80;;
5363;SDS011;2705;41.410;2.160;2022-11-15T10:09:29;6.50;;;2.47;;
5363;SDS011;2705;41.410;2.160;2022-11-15T10:12:00;7.20;;;3.70;;
5363;SDS011;2705;41.410;2.160;2022-11-15T10:14:30;10.03;;;2.73;;
5363;SDS011;2705;41.410;2.160;2022-11-15T10:17:15;10.73;;;2.20;;
5363;SDS011;2705;41.410;2.160;2022-11-15T10:19:52;6.23;;;1.90;;
5363;SDS011;2705;41.410;2.160;2022-11-15T10:22:34;3.27;;;2.03;;
5363;SDS011;2705;41.410;2.160;2022-11-15T10:25:16;10.03;;;3.43;;
5363;SDS011;2705;41.410;2.160;2022-11-15T10:27:48;4.40;;;2.13;;
5363;SDS011;2705;41.410;2.160;2022-11-15T10:30:20;15.73;;;2.10;;
5363;SDS011;2705;41.410;2.160;2022-11-15T10:32:49;11.33;;;2.73;;
5363;SDS011;2705;41.410;2.160;2022-11-15T10:35:19;5.60;;;2.10;;
5363;SDS011;2705;41.410;2.160;2022-11-15T10:37:50;11.43;;;2.70;;
5363;SDS011;2705;41.410;2.160;2022-11-15T10:40:20;6.97;;;2.60;;
5363;SDS011;2705;41.410;2.160;2022-11-15T10:43:04;5.90;;;2.37;;
5363;SDS011;2705;41.410;2.160;2022-11-15T10:45:34;7.73;;;2.47;;
5363;SDS011;2705;41.410;2.160;2022-11-15T10:50:53;10.90;;;3.90;;
5363;SDS011;2705;41.410;2.160;2022-11-15T10:53:25;16.77;;;6.50;;
5363;SDS011;2705;41.410;2.160;2022-11-15T10:55:58;19.27;;;7.00;;
5363;SDS011;2705;41.410;2.160;2022-11-15T10:58:33;19.13;;;7.10;;
5363;SDS011;2705;41.410;2.160;2022-11-15T11:01:13;15.50;;;6.27;;
5363;SDS011;2705;41.410;2.160;2022-11-15T11:03:43;8.07;;;4.07;;
5363;SDS011;2705;41.410;2.160;2022-11-15T11:06:13;4.20;;;2.30;;
5363;SDS011;2705;41.410;2.160;2022-11-15T11:08:55;2.83;;;1.60;;
5363;SDS011;2705;41.410;2.160;2022-11-15T11:11:25;5.30;;;2.00;;
5363;SDS011;2705;41.410;2.160;2022-11-15T11:14:12;3.60;;;1.50;;
5363;SDS011;2705;41.410;2.160;2022-11-15T11:16:42;4.83;;;2.30;;
5363;SDS011;2705;41.410;2.160;2022-11-15T11:19:29;15.60;;;2.70;;
5363;SDS011;2705;41.410;2.160;2022-11-15T11:22:01;7.90;;;2.40;;
5363;SDS011;2705;41.410;2.160;2022-11-15T11:24:34;9.07;;;1.80;;
5363;SDS011;2705;41.410;2.160;2022-11-15T11:27:18;8.03;;;1.73;;
5363;SDS011;2705;41.410;2.160;2022-11-15T11:29:59;4.20;;;2.20;;
5363;SDS011;2705;41.410;2.160;2022-11-15T11:32:34;6.33;;;2.97;;
5363;SDS011;2705;41.410;2.160;2022-11-15T11:35:08;4.30;;;2.10;;
5363;SDS011;2705;41.410;2.160;2022-11-15T11:37:43;4.00;;;1.80;;
5363;SDS011;2705;41.410;2.160;2022-11-15T11:40:20;4.93;;;1.37;;
5363;SDS011;2705;41.410;2.160;2022-11-15T11:42:54;5.13;;;3.10;;
5363;SDS011;2705;41.410;2.160;2022-11-15T11:45:31;4.90;;;1.97;;
5363;SDS011;2705;41.410;2.160;2022-11-15T11:48:02;4.77;;;2.57;;
5363;SDS011;2705;41.410;2.160;2022-11-15T11:50:36;5.70;;;2.20;;
5363;SDS011;2705;41.410;2.160;2022-11-15T11:53:09;9.73;;;2.47;;
5363;SDS011;2705;41.410;2.160;2022-11-15T11:55:42;3.37;;;1.67;;
5363;SDS011;2705;41.410;2.160;2022-11-15T11:58:13;5.73;;;1.60;;
5363;SDS011;2705;41.410;2.160;2022-11-15T12:00:47;3.67;;;1.47;;
5363;SDS011;2705;41.410;2.160;2022-11-15T12:03:19;4.37;;;2.03;;
5363;SDS011;2705;41.410;2.160;2022-11-15T12:05:51;3.50;;;1.50;;
5363;SDS011;2705;41.410;2.160;2022-11-15T12:08:25;1.67;;;1.20;;
5363;SDS011;2705;41.410;2.160;2022-11-15T12:11:00;4.17;;;1.17;;
5363;SDS011;2705;41.410;2.160;2022-11-15T12:13:30;2.37;;;1.40;;
5363;SDS011;2705;41.410;2.160;2022-11-15T12:16:05;3.00;;;1.30;;
5363;SDS011;2705;41.410;2.160;2022-11-15T12:18:36;3.57;;;1.30;;
5363;SDS011;2705;41.410;2.160;2022-11-15T12:21:07;2.83;;;1.00;;
5363;SDS011;2705;41.410;2.160;2022-11-15T12:23:38;5.00;;;1.60;;
5363;SDS011;2705;41.410;2.160;2022-11-15T12:26:10;1.10;;;1.00;;
5363;SDS011;2705;41.410;2.160;2022-11-15T12:28:41;3.87;;;1.40;;
5363;SDS011;2705;41.410;2.160;2022-11-15T12:31:35;2.10;;;1.10;;
5363;SDS011;2705;41.410;2.160;2022-11-15T12:34:13;5.07;;;1.70;;
5363;SDS011;2705;41.410;2.160;2022-11-15T12:36:43;1.50;;;1.30;;
5363;SDS011;2705;41.410;2.160;2022-11-15T12:39:13;3.20;;;1.70;;
5363;SDS011;2705;41.410;2.160;2022-11-15T12:41:44;1.60;;;1.10;;
5363;SDS011;2705;41.410;2.160;2022-11-15T12:47:22;7.00;;;1.60;;
5363;SDS011;2705;41.410;2.160;2022-11-15T12:49:52;1.77;;;1.10;;
5363;SDS011;2705;41.410;2.160;2022-11-15T12:52:21;1.63;;;1.10;;
5363;SDS011;2705;41.410;2.160;2022-11-15T12:54:58;3.63;;;2.37;;
5363;SDS011;2705;41.410;2.160;2022-11-15T12:57:34;2.40;;;1.40;;
5363;SDS011;2705;41.410;2.160;2022-11-15T13:00:16;1.20;;;1.10;;
5363;SDS011;2705;41.410;2.160;2022-11-15T13:03:12;3.13;;;1.70;;
5363;SDS011;2705;41.410;2.160;2022-11-15T13:05:55;9.00;;;1.43;;
5363;SDS011;2705;41.410;2.160;2022-11-15T13:08:38;3.73;;;1.60;;
5363;SDS011;2705;41.410;2.160;2022-11-15T13:13:52;3.30;;;1.30;;
5363;SDS011;2705;41.410;2.160;2022-11-15T13:16:21;3.73;;;1.40;;
5363;SDS011;2705;41.410;2.160;2022-11-15T13:18:52;1.33;;;1.00;;
5363;SDS011;2705;41.410;2.160;2022-11-15T13:21:22;2.67;;;1.20;;
5363;SDS011;2705;41.410;2.160;2022-11-15T13:24:10;1.90;;;1.43;;
5363;SDS011;2705;41.410;2.160;2022-11-15T13:26:41;2.97;;;1.80;;
5363;SDS011;2705;41.410;2.160;2022-11-15T13:29:18;6.73;;;1.73;;
5363;SDS011;2705;41.410;2.160;2022-11-15T13:31:48;7.47;;;2.10;;
5363;SDS011;2705;41.410;2.160;2022-11-15T13:34:27;7.70;;;3.87;;
5363;SDS011;2705;41.410;2.160;2022-11-15T13:37:27;2.20;;;1.67;;
5363;SDS011;2705;41.410;2.160;2022-11-15T13:40:10;2.20;;;1.30;;
5363;SDS011;2705;41.410;2.160;2022-11-15T13:42:44;1.97;;;1.33;;
5363;SDS011;2705;41.410;2.160;2022-11-15T13:45:17;1.63;;;1.20;;
5363;SDS011;2705;41.410;2.160;2022-11-15T13:47:51;2.70;;;1.50;;
5363;SDS011;2705;41.410;2.160;2022-11-15T13:50:21;1.37;;;1.20;;
5363;SDS011;2705;41.410;2.160;2022-11-15T13:52:51;2.53;;;1.80;;
5363;SDS011;2705;41.410;2.160;2022-11-15T13:55:21;1.20;;;1.10;;
5363;SDS011;2705;41.410;2.160;2022-11-15T13:57:51;3.50;;;1.30;;
5363;SDS011;2705;41.410;2.160;2022-11-15T14:00:29;2.30;;;1.80;;
5363;SDS011;2705;41.410;2.160;2022-11-15T14:03:04;12.97;;;5.47;;
5363;SDS011;2705;41.410;2.160;2022-11-15T14:05:34;18.27;;;7.50;;
5363;SDS011;2705;41.410;2.160;2022-11-15T14:08:20;14.30;;;7.10;;
5363;SDS011;2705;41.410;2.160;2022-11-15T14:11:05;13.23;;;6.47;;
5363;SDS011;2705;41.410;2.160;2022-11-15T14:13:35;14.47;;;6.43;;
5363;SDS011;2705;41.410;2.160;2022-11-15T14:16:18;12.90;;;6.23;;
5363;SDS011;2705;41.410;2.160;2022-11-15T14:18:48;17.10;;;6.27;;
5363;SDS011;2705;41.410;2.160;2022-11-15T14:21:18;19.00;;;6.60;;
5363;SDS011;2705;41.410;2.160;2022-11-15T14:23:48;11.40;;;6.00;;
5363;SDS011;2705;41.410;2.160;2022-11-15T14:31:49;14.93;;;6.70;;
5363;SDS011;2705;41.410;2.160;2022-11-15T14:34:19;21.20;;;5.93;;
5363;SDS011;2705;41.410;2.160;2022-11-15T14:36:49;15.40;;;6.17;;
5363;SDS011;2705;41.410;2.160;2022-11-15T14:39:18;12.07;;;7.60;;
5363;SDS011;2705;41.410;2.160;2022-11-15T14:41:48;10.27;;;6.20;;
5363;SDS011;2705;41.410;2.160;2022-11-15T14:44:17;13.60;;;6.87;;
5363;SDS011;2705;41.410;2.160;2022-11-15T14:46:49;14.00;;;5.50;;
5363;SDS011;2705;41.410;2.160;2022-11-15T14:49:19;15.27;;;6.10;;
5363;SDS011;2705;41.410;2.160;2022-11-15T14:51:48;12.47;;;4.90;;
5363;SDS011;2705;41.410;2.160;2022-11-15T14:54:18;8.50;;;4.20;;
5363;SDS011;2705;41.410;2.160;2022-11-15T14:56:48;17.47;;;5.97;;
5363;SDS011;2705;41.410;2.160;2022-11-15T14:59:17;11.83;;;4.40;;
5363;SDS011;2705;41.410;2.160;2022-11-15T15:01:46;17.40;;;6.03;;
5363;SDS011;2705;41.410;2.160;2022-11-15T15:04:17;11.40;;;5.30;;
5363;SDS011;2705;41.410;2.160;2022-11-15T15:06:46;20.77;;;6.30;;
5363;SDS011;2705;41.410;2.160;2022-11-15T15:09:15;18.87;;;5.07;;
5363;SDS011;2705;41.410;2.160;2022-11-15T15:11:44;12.30;;;5.00;;
5363;SDS011;2705;41.410;2.160;2022-11-15T15:14:13;13.77;;;4.30;;
5363;SDS011;2705;41.410;2.160;2022-11-15T15:16:43;16.60;;;4.93;;
5363;SDS011;2705;41.410;2.160;2022-11-15T15:19:12;9.73;;;4.20;;
5363;SDS011;2705;41.410;2.160;2022-11-15T15:21:42;8.93;;;4.20;;
5363;SDS011;2705;41.410;2.160;2022-11-15T15:24:12;8.47;;;4.10;;
5363;SDS011;2705;41.410;2.160;2022-11-15T15:26:42;10.70;;;4.63;;
5363;SDS011;2705;41.410;2.160;2022-11-15T15:29:11;13.67;;;4.80;;
5363;SDS011;2705;41.410;2.160;2022-11-15T15:31:40;14.00;;;4.87;;
5363;SDS011;2705;41.410;2.160;2022-11-15T15:34:10;11.10;;;4.90;;
5363;SDS011;2705;41.410;2.160;2022-11-15T15:36:44;14.23;;;6.20;;
5363;SDS011;2705;41.410;2.160;2022-11-15T15:39:13;15.13;;;4.57;;
5363;SDS011;2705;41.410;2.160;2022-11-15T15:41:43;11.33;;;4.37;;
5363;SDS011;2705;41.410;2.160;2022-11-15T15:44:12;12.97;;;5.23;;
5363;SDS011;2705;41.410;2.160;2022-11-15T15:46:41;15.50;;;4.57;;
5363;SDS011;2705;41.410;2.160;2022-11-15T15:49:10;11.73;;;3.93;;
5363;SDS011;2705;41.410;2.160;2022-11-15T15:51:39;18.47;;;6.87;;
5363;SDS011;2705;41.410;2.160;2022-11-15T15:54:10;11.13;;;4.20;;
5363;SDS011;2705;41.410;2.160;2022-11-15T15:56:39;10.57;;;4.50;;
5363;SDS011;2705;41.410;2.160;2022-11-15T15:59:09;12.20;;;4.87;;
5363;SDS011;2705;41.410;2.160;2022-11-15T16:01:38;10.73;;;4.10;;
5363;SDS011;2705;41.410;2.160;2022-11-15T16:04:07;8.70;;;4.30;;
5363;SDS011;2705;41.410;2.160;2022-11-15T16:06:37;9.33;;;3.90;;
5363;SDS011;2705;41.410;2.160;2022-11-15T16:09:10;13.00;;;4.10;;
5363;SDS011;2705;41.410;2.160;2022-11-15T16:11:43;11.00;;;4.03;;
5363;SDS011;2705;41.410;2.160;2022-11-15T16:14:13;18.90;;;4.53;;
5363;SDS011;2705;41.410;2.160;2022-11-15T16:16:42;10.43;;;4.13;;
5363;SDS011;2705;41.410;2.160;2022-11-15T16:19:12;14.07;;;4.70;;
5363;SDS011;2705;41.410;2.160;2022-11-15T16:21:41;9.43;;;3.90;;
5363;SDS011;2705;41.410;2.160;2022-11-15T16:24:12;9.30;;;4.00;;
5363;SDS011;2705;41.410;2.160;2022-11-15T16:26:41;7.50;;;3.93;;
5363;SDS011;2705;41.410;2.160;2022-11-15T16:29:10;18.73;;;4.53;;
5363;SDS011;2705;41.410;2.160;2022-11-15T16:31:40;12.93;;;3.77;;
5363;SDS011;2705;41.410;2.160;2022-11-15T16:34:09;8.97;;;3.77;;
5363;SDS011;2705;41.410;2.160;2022-11-15T16:36:38;22.47;;;4.60;;
5363;SDS011;2705;41.410;2.160;2022-11-15T16:39:09;12.50;;;5.30;;
5363;SDS011;2705;41.410;2.160;2022-11-15T16:41:41;9.63;;;3.87;;
5363;SDS011;2705;41.410;2.160;2022-11-15T16:44:13;11.50;;;6.50;;
5363;SDS011;2705;41.410;2.160;2022-11-15T16:46:43;9.23;;;4.50;;
5363;SDS011;2705;41.410;2.160;2022-11-15T16:49:17;6.97;;;3.87;;
5363;SDS011;2705;41.410;2.160;2022-11-15T16:51:48;13.00;;;4.90;;
5363;SDS011;2705;41.410;2.160;2022-11-15T16:54:18;10.57;;;4.60;;
5363;SDS011;2705;41.410;2.160;2022-11-15T16:56:49;25.63;;;13.00;;
5363;SDS011;2705;41.410;2.160;2022-11-15T16:59:18;12.37;;;4.20;;
5363;SDS011;2705;41.410;2.160;2022-11-15T17:01:47;16.97;;;7.73;;